Time;durP1;ratioP1;P1;durP2;ratioP2;P2;SDS_P1;SDS_P2;PMS_P1;PMS_P2;Temp;Humidity;BMP_temperature;BMP_pressure;BME280_temperature;BME280_humidity;BME280_pressure;Samples;Min_cycle;Max_cycle;Signal;HPM_P1;HPM_P2
2022/01/23 00:01:46;;;;;;;31.87;20.23;;;;;;;;;;4902685;29;20222;-87
2022/01/23 00:04:13;;;;;;;38.87;23.80;;;;;;;;;;4890285;29;20197;-88
2022/01/23 00:06:41;;;;;;;30.77;19.50;;;;;;;;;;4911674;29;20279;-88
2022/01/23 00:09:08;;;;;;;37.80;23.00;;;;;;;;;;4903598;29;20215;-88
2022/01/23 00:11:42;;;;;;;33.07;19.53;;;;;;;;;;4906957;29;20228;-88
2022/01/23 00:19:41;;;;;;;37.10;23.07;;;;;;;;;;4945332;28;20210;-88
2022/01/23 00:22:10;;;;;;;29.27;18.97;;;;;;;;;;4969754;28;20226;-88
2022/01/23 00:33:00;;;;;;;35.13;21.00;;;;;;;;;;5005103;28;20224;-88
2022/01/23 00:35:27;;;;;;;44.20;27.10;;;;;;;;;;5010916;28;20251;-88
2022/01/23 00:37:55;;;;;;;32.93;19.00;;;;;;;;;;5011978;28;20293;-88
2022/01/23 00:40:23;;;;;;;35.90;23.80;;;;;;;;;;5011098;28;20291;-88
2022/01/23 00:42:53;;;;;;;31.17;20.33;;;;;;;;;;5011300;28;20295;-88
2022/01/23 00:45:32;;;;;;;34.67;20.87;;;;;;;;;;5012030;28;20206;-88
2022/01/23 00:48:04;;;;;;;31.47;19.20;;;;;;;;;;5010578;28;20202;-88
2022/01/23 00:50:32;;;;;;;32.70;19.97;;;;;;;;;;5009389;28;20278;-88
2022/01/23 00:53:00;;;;;;;33.43;20.37;;;;;;;;;;4999582;28;20265;-88
2022/01/23 00:55:27;;;;;;;41.20;23.93;;;;;;;;;;5015688;28;20287;-89
2022/01/23 00:57:54;;;;;;;33.93;19.83;;;;;;;;;;5014796;28;20221;-88
2022/01/23 01:00:22;;;;;;;30.90;19.80;;;;;;;;;;5014724;28;20287;-88
2022/01/23 01:02:49;;;;;;;33.40;21.43;;;;;;;;;;5014272;28;20197;-89
2022/01/23 01:05:18;;;;;;;31.50;19.13;;;;;;;;;;5015388;28;20287;-88
2022/01/23 01:07:45;;;;;;;29.97;19.03;;;;;;;;;;5014828;28;20237;-88
2022/01/23 01:10:19;;;;;;;29.87;18.77;;;;;;;;;;5014990;28;20293;-88
2022/01/23 01:12:49;;;;;;;31.50;20.30;;;;;;;;;;5013774;28;20232;-88
2022/01/23 01:32:02;;;;;;;30.73;19.53;;;;;;;;;;4984967;28;20720;-88
2022/01/23 01:34:36;;;;;;;37.33;21.43;;;;;;;;;;4978827;28;20236;-88
2022/01/23 01:37:08;;;;;;;34.90;19.57;;;;;;;;;;4982121;28;20305;-88
2022/01/23 01:39:35;;;;;;;41.97;23.27;;;;;;;;;;4987676;28;20206;-88
2022/01/23 01:42:02;;;;;;;34.37;19.00;;;;;;;;;;4978224;28;20824;-88
2022/01/23 01:44:30;;;;;;;32.50;18.97;;;;;;;;;;4978044;28;20316;-88
2022/01/23 01:46:58;;;;;;;28.97;18.87;;;;;;;;;;4976648;28;20281;-88
2022/01/23 01:49:29;;;;;;;38.43;22.43;;;;;;;;;;4974745;28;20665;-88
2022/01/23 01:51:56;;;;;;;30.03;16.43;;;;;;;;;;4973740;28;20226;-88
2022/01/23 01:54:27;;;;;;;33.63;19.90;;;;;;;;;;4973240;28;20301;-88
2022/01/23 01:57:05;;;;;;;32.13;18.17;;;;;;;;;;4970959;28;20208;-88
2022/01/23 01:59:49;;;;;;;32.10;18.03;;;;;;;;;;4986561;28;20194;-88
2022/01/23 02:02:55;;;;;;;32.73;20.50;;;;;;;;;;5011943;28;20193;-88
2022/01/23 02:08:24;;;;;;;38.30;22.80;;;;;;;;;;5001716;28;20279;-88
2022/01/23 02:10:57;;;;;;;30.57;18.50;;;;;;;;;;5014102;28;20201;-88
2022/01/23 02:13:29;;;;;;;42.77;24.87;;;;;;;;;;5013714;28;20225;-88
2022/01/23 02:22:29;;;;;;;27.33;18.43;;;;;;;;;;5005465;28;20192;-88
2022/01/23 02:52:04;;;;;;;34.27;17.83;;;;;;;;;;4989423;28;20216;-88
2022/01/23 02:54:54;;;;;;;28.10;17.93;;;;;;;;;;4991900;28;20256;-89
2022/01/23 02:57:36;;;;;;;32.30;17.57;;;;;;;;;;4992048;28;20202;-88
2022/01/23 03:00:10;;;;;;;29.80;17.73;;;;;;;;;;4990624;28;20209;-88
2022/01/23 03:02:42;;;;;;;28.00;16.87;;;;;;;;;;4975796;28;20685;-88
2022/01/23 03:05:12;;;;;;;29.03;17.50;;;;;;;;;;5011661;28;20209;-88
2022/01/23 03:07:56;;;;;;;28.53;17.10;;;;;;;;;;5013614;28;20212;-89
2022/01/23 03:10:28;;;;;;;29.53;17.63;;;;;;;;;;5012991;28;20200;-88
2022/01/23 03:27:01;;;;;;;27.93;17.57;;;;;;;;;;4977435;28;20672;-88
2022/01/23 03:29:39;;;;;;;30.27;18.23;;;;;;;;;;5001858;28;20212;-88
2022/01/23 03:32:19;;;;;;;31.27;18.43;;;;;;;;;;5010235;28;20251;-88
2022/01/23 03:34:46;;;;;;;32.77;19.00;;;;;;;;;;4979771;28;20220;-88
2022/01/23 03:37:14;;;;;;;33.93;18.73;;;;;;;;;;4999333;28;20201;-88
2022/01/23 03:39:42;;;;;;;31.57;18.07;;;;;;;;;;5003616;28;20198;-88
2022/01/23 03:42:12;;;;;;;32.30;19.10;;;;;;;;;;5002524;28;20245;-88
2022/01/23 03:44:52;;;;;;;30.93;18.57;;;;;;;;;;4990058;28;20312;-88
2022/01/23 03:47:33;;;;;;;31.23;17.90;;;;;;;;;;4979844;28;20244;-88
2022/01/23 03:49:59;;;;;;;30.30;18.47;;;;;;;;;;4991457;28;20198;-88
2022/01/23 03:52:26;;;;;;;32.93;18.73;;;;;;;;;;4999913;28;20604;-88
2022/01/23 03:54:54;;;;;;;30.70;17.30;;;;;;;;;;4993688;28;20228;-88
2022/01/23 03:57:22;;;;;;;34.07;18.07;;;;;;;;;;5012159;28;20205;-88
2022/01/23 03:59:50;;;;;;;35.43;19.27;;;;;;;;;;5012136;28;20209;-88
2022/01/23 04:02:17;;;;;;;31.93;18.50;;;;;;;;;;5012456;28;20228;-88
2022/01/23 04:04:45;;;;;;;28.73;17.73;;;;;;;;;;5011284;28;20209;-88
2022/01/23 04:07:16;;;;;;;31.63;17.93;;;;;;;;;;5011380;28;20232;-88
2022/01/23 04:09:44;;;;;;;30.57;18.20;;;;;;;;;;5011872;28;20569;-88
2022/01/23 04:12:24;;;;;;;34.10;18.70;;;;;;;;;;5012070;28;20215;-88
2022/01/23 04:15:00;;;;;;;32.73;18.70;;;;;;;;;;5011434;28;20259;-88
2022/01/23 04:20:38;;;;;;;34.10;17.43;;;;;;;;;;5011923;28;20208;-88
2022/01/23 04:31:51;;;;;;;31.50;17.17;;;;;;;;;;5011029;28;20738;-89
2022/01/23 04:34:21;;;;;;;32.80;17.77;;;;;;;;;;5011475;28;20225;-87
2022/01/23 04:45:28;;;;;;;30.67;17.00;;;;;;;;;;5011256;28;20271;-88
2022/01/23 05:02:01;;;;;;;27.27;15.40;;;;;;;;;;4943325;29;20237;-89
2022/01/23 05:04:32;;;;;;;25.33;15.40;;;;;;;;;;4950192;29;20746;-88
2022/01/23 05:07:02;;;;;;;27.47;14.83;;;;;;;;;;4950071;28;20282;-88
2022/01/23 05:09:30;;;;;;;29.03;15.70;;;;;;;;;;4949573;29;20305;-88
2022/01/23 05:11:58;;;;;;;27.13;16.27;;;;;;;;;;4950494;28;20202;-88
2022/01/23 05:14:32;;;;;;;25.77;15.13;;;;;;;;;;4950519;29;20231;-88
2022/01/23 05:16:59;;;;;;;23.13;14.80;;;;;;;;;;4951322;28;20214;-88
2022/01/23 05:19:27;;;;;;;28.23;14.07;;;;;;;;;;4950693;29;20199;-88
2022/01/23 05:22:18;;;;;;;25.97;14.90;;;;;;;;;;4951343;28;20973;-87
2022/01/23 05:24:51;;;;;;;25.63;15.07;;;;;;;;;;4951090;29;20231;-87
2022/01/23 05:27:18;;;;;;;27.67;14.17;;;;;;;;;;4950344;28;20647;-88
2022/01/23 05:29:45;;;;;;;23.60;14.20;;;;;;;;;;4950182;29;20303;-87
2022/01/23 05:32:14;;;;;;;26.10;14.67;;;;;;;;;;4951034;29;20664;-88
2022/01/23 05:34:41;;;;;;;27.60;15.50;;;;;;;;;;4956227;28;20341;-88
2022/01/23 05:37:10;;;;;;;25.20;14.10;;;;;;;;;;5012130;28;20204;-88
2022/01/23 05:39:37;;;;;;;26.27;14.73;;;;;;;;;;5013600;28;20261;-88
2022/01/23 05:42:07;;;;;;;23.00;14.03;;;;;;;;;;5014360;28;20256;-88
2022/01/23 05:44:35;;;;;;;27.20;14.77;;;;;;;;;;5013701;28;20232;-88
2022/01/23 05:47:02;;;;;;;23.30;14.10;;;;;;;;;;5014217;28;20212;-88
2022/01/23 05:49:29;;;;;;;25.87;14.07;;;;;;;;;;5013854;28;20193;-88
2022/01/23 05:51:57;;;;;;;23.37;14.13;;;;;;;;;;5013322;28;20267;-87
2022/01/23 05:54:26;;;;;;;25.10;14.17;;;;;;;;;;5014360;28;20263;-88
2022/01/23 05:56:53;;;;;;;23.93;13.80;;;;;;;;;;5013976;28;20197;-88
2022/01/23 05:59:21;;;;;;;24.47;13.87;;;;;;;;;;5014011;28;20240;-88
2022/01/23 06:01:58;;;;;;;21.87;13.57;;;;;;;;;;5013146;28;20213;-87
2022/01/23 06:04:26;;;;;;;24.97;13.90;;;;;;;;;;5013712;28;20335;-88
2022/01/23 06:06:55;;;;;;;23.30;13.67;;;;;;;;;;5013288;28;20284;-88
2022/01/23 06:09:23;;;;;;;24.03;13.60;;;;;;;;;;5014443;28;20291;-86
2022/01/23 06:11:52;;;;;;;24.97;14.53;;;;;;;;;;5013546;28;20533;-88
2022/01/23 06:14:19;;;;;;;22.17;13.17;;;;;;;;;;5011148;28;20307;-88
2022/01/23 06:16:47;;;;;;;27.40;13.53;;;;;;;;;;5013780;28;20287;-88
2022/01/23 06:19:14;;;;;;;19.37;13.20;;;;;;;;;;5013427;28;20291;-88
2022/01/23 06:21:41;;;;;;;22.87;14.10;;;;;;;;;;5013573;28;20204;-88
2022/01/23 06:24:13;;;;;;;25.20;13.87;;;;;;;;;;5013237;28;20243;-89
2022/01/23 06:26:45;;;;;;;24.10;13.53;;;;;;;;;;5013812;28;20457;-88
2022/01/23 06:29:15;;;;;;;22.77;13.93;;;;;;;;;;5013504;28;20256;-88
2022/01/23 06:31:42;;;;;;;25.20;14.73;;;;;;;;;;5013328;28;20208;-88
2022/01/23 06:34:11;;;;;;;23.47;14.30;;;;;;;;;;5012700;28;20232;-87
2022/01/23 06:36:39;;;;;;;25.60;14.90;;;;;;;;;;5013087;28;20637;-88
2022/01/23 06:39:07;;;;;;;26.97;15.97;;;;;;;;;;5012944;28;20197;-87
2022/01/23 06:41:35;;;;;;;29.70;16.10;;;;;;;;;;5005406;28;20290;-87
2022/01/23 06:44:03;;;;;;;29.63;16.20;;;;;;;;;;5012724;28;20328;-88
2022/01/23 06:46:33;;;;;;;30.83;16.90;;;;;;;;;;5013094;28;20219;-88
2022/01/23 06:49:01;;;;;;;30.17;16.57;;;;;;;;;;5011900;28;20193;-88
2022/01/23 06:51:28;;;;;;;30.83;16.40;;;;;;;;;;5012613;28;20205;-89
2022/01/23 06:53:55;;;;;;;25.97;16.10;;;;;;;;;;5013142;28;20237;-87
2022/01/23 06:56:22;;;;;;;32.10;16.90;;;;;;;;;;5012288;28;20208;-88
2022/01/23 06:58:50;;;;;;;33.53;17.73;;;;;;;;;;5012994;28;20331;-88
2022/01/23 07:01:17;;;;;;;32.73;17.40;;;;;;;;;;5012901;28;20288;-87
2022/01/23 07:03:46;;;;;;;31.80;16.90;;;;;;;;;;5013075;28;20295;-88
2022/01/23 07:06:13;;;;;;;32.73;17.97;;;;;;;;;;5012215;28;20774;-88
2022/01/23 07:08:40;;;;;;;27.77;16.97;;;;;;;;;;5012632;28;20303;-88
2022/01/23 07:11:07;;;;;;;29.63;17.23;;;;;;;;;;5012860;28;20753;-88
2022/01/23 07:13:35;;;;;;;30.13;16.70;;;;;;;;;;5012817;28;20397;-88
2022/01/23 07:16:04;;;;;;;33.63;17.20;;;;;;;;;;5013807;28;20315;-88
2022/01/23 07:18:32;;;;;;;34.40;17.77;;;;;;;;;;5014836;28;20255;-89
2022/01/23 07:21:02;;;;;;;35.83;18.53;;;;;;;;;;5015880;28;21007;-88
2022/01/23 07:23:29;;;;;;;31.93;17.87;;;;;;;;;;5015893;28;20208;-88
2022/01/23 07:25:57;;;;;;;32.40;17.33;;;;;;;;;;5015463;28;20196;-88
2022/01/23 07:28:34;;;;;;;33.57;17.87;;;;;;;;;;5014840;28;20212;-87
2022/01/23 07:31:04;;;;;;;28.30;17.60;;;;;;;;;;5009547;28;20232;-88
2022/01/23 07:33:33;;;;;;;30.83;17.90;;;;;;;;;;5014693;28;20258;-88
2022/01/23 07:36:02;;;;;;;30.77;17.83;;;;;;;;;;5015283;28;20224;-87
2022/01/23 07:38:30;;;;;;;35.03;18.17;;;;;;;;;;5015172;28;20208;-88
2022/01/23 07:40:58;;;;;;;31.97;18.23;;;;;;;;;;5014837;28;20213;-87
2022/01/23 07:43:25;;;;;;;32.77;17.47;;;;;;;;;;5013634;28;20748;-88
2022/01/23 07:45:52;;;;;;;33.70;17.30;;;;;;;;;;5011624;28;20285;-88
2022/01/23 07:48:19;;;;;;;33.20;17.40;;;;;;;;;;5010702;28;20283;-87
2022/01/23 07:50:47;;;;;;;29.13;16.70;;;;;;;;;;5011836;28;20204;-88
2022/01/23 07:53:15;;;;;;;30.63;17.03;;;;;;;;;;5011554;28;20255;-87
2022/01/23 07:55:43;;;;;;;26.90;15.93;;;;;;;;;;5011873;28;20834;-87
2022/01/23 07:58:14;;;;;;;30.33;17.83;;;;;;;;;;5012169;28;20209;-86
2022/01/23 08:00:41;;;;;;;30.40;17.53;;;;;;;;;;5012365;28;20200;-87
2022/01/23 08:03:16;;;;;;;31.77;17.47;;;;;;;;;;5011687;28;20208;-89
2022/01/23 08:05:44;;;;;;;33.87;17.90;;;;;;;;;;5013180;28;20204;-87
2022/01/23 08:08:11;;;;;;;31.57;17.13;;;;;;;;;;5012144;28;20235;-86
2022/01/23 08:10:40;;;;;;;38.23;19.30;;;;;;;;;;5017726;28;20189;-85
2022/01/23 08:13:07;;;;;;;40.63;20.03;;;;;;;;;;5023440;28;20247;-87
2022/01/23 08:15:35;;;;;;;37.97;19.87;;;;;;;;;;5011534;28;20252;-86
2022/01/23 08:18:02;;;;;;;35.10;20.27;;;;;;;;;;5011172;28;20300;-87
2022/01/23 08:20:31;;;;;;;35.40;18.60;;;;;;;;;;5011637;28;20292;-86
2022/01/23 08:23:00;;;;;;;33.43;17.93;;;;;;;;;;5010800;28;20296;-87
2022/01/23 08:25:28;;;;;;;34.93;19.80;;;;;;;;;;5011591;28;20243;-87
2022/01/23 08:27:57;;;;;;;37.20;20.97;;;;;;;;;;5011794;28;20200;-87
2022/01/23 08:30:24;;;;;;;38.83;21.47;;;;;;;;;;5011307;28;20221;-87
2022/01/23 08:32:52;;;;;;;40.07;21.10;;;;;;;;;;5010847;28;20231;-88
2022/01/23 08:35:20;;;;;;;42.93;23.13;;;;;;;;;;5010910;28;20224;-87
2022/01/23 08:37:47;;;;;;;40.70;21.43;;;;;;;;;;5004079;28;20226;-88
2022/01/23 08:40:21;;;;;;;41.80;22.77;;;;;;;;;;5011186;28;20636;-88
2022/01/23 08:42:48;;;;;;;41.70;23.07;;;;;;;;;;5011003;28;20224;-87
2022/01/23 08:45:17;;;;;;;40.67;22.70;;;;;;;;;;5011266;28;20646;-87
2022/01/23 08:47:44;;;;;;;44.90;24.13;;;;;;;;;;5010754;28;20240;-87
2022/01/23 08:50:12;;;;;;;50.37;24.37;;;;;;;;;;5008227;28;20288;-86
2022/01/23 08:52:39;;;;;;;47.40;23.97;;;;;;;;;;5009939;28;20242;-86
2022/01/23 08:55:07;;;;;;;49.23;25.20;;;;;;;;;;5010935;28;20220;-86
2022/01/23 08:57:34;;;;;;;45.80;23.80;;;;;;;;;;5010380;28;20213;-86
2022/01/23 09:00:01;;;;;;;48.17;26.07;;;;;;;;;;5010511;28;20219;-87
2022/01/23 09:02:30;;;;;;;50.50;26.20;;;;;;;;;;5011195;28;20262;-87
2022/01/23 09:04:59;;;;;;;52.10;27.37;;;;;;;;;;5010451;28;20205;-87
2022/01/23 09:07:27;;;;;;;49.13;25.50;;;;;;;;;;5010506;28;20563;-86
2022/01/23 09:10:01;;;;;;;47.80;26.17;;;;;;;;;;5010179;28;20247;-87
2022/01/23 09:12:42;;;;;;;47.33;26.20;;;;;;;;;;5012641;28;20247;-86
2022/01/23 09:15:10;;;;;;;58.83;28.20;;;;;;;;;;5013603;28;20368;-85
2022/01/23 09:17:39;;;;;;;61.03;29.83;;;;;;;;;;5015020;28;20205;-87
2022/01/23 09:20:06;;;;;;;56.37;28.03;;;;;;;;;;5013753;28;20229;-87
2022/01/23 09:22:33;;;;;;;58.87;29.77;;;;;;;;;;5014351;28;20232;-86
2022/01/23 09:25:01;;;;;;;57.80;30.17;;;;;;;;;;5013768;28;20744;-89
2022/01/23 09:27:29;;;;;;;59.30;29.17;;;;;;;;;;5016786;28;20200;-86
2022/01/23 09:30:05;;;;;;;66.33;32.20;;;;;;;;;;5014664;28;20216;-88
2022/01/23 09:32:32;;;;;;;62.37;30.90;;;;;;;;;;5016529;28;20258;-88
2022/01/23 09:35:01;;;;;;;59.83;30.13;;;;;;;;;;5013468;28;20295;-85
2022/01/23 09:37:28;;;;;;;65.22;38.15;;;;;;;;;;5005134;28;20442;-83
2022/01/23 09:39:58;;;;;;;64.03;34.00;;;;;;;;;;5014298;28;20280;-87
2022/01/23 09:42:35;;;;;;;61.13;29.87;;;;;;;;;;5014731;28;20240;-86
2022/01/23 09:45:05;;;;;;;61.87;31.20;;;;;;;;;;5010506;28;20256;-86
2022/01/23 09:47:32;;;;;;;61.77;30.80;;;;;;;;;;5021669;28;20220;-86
2022/01/23 09:50:03;;;;;;;55.57;27.83;;;;;;;;;;5014496;28;20259;-85
2022/01/23 09:52:33;;;;;;;63.13;32.63;;;;;;;;;;5013925;28;20255;-85
2022/01/23 09:55:06;;;;;;;61.33;31.80;;;;;;;;;;5013692;28;20208;-86
2022/01/23 09:57:34;;;;;;;62.60;32.07;;;;;;;;;;5013623;28;20233;-85
2022/01/23 10:00:02;;;;;;;60.03;31.67;;;;;;;;;;5013304;28;20259;-85
2022/01/23 10:02:30;;;;;;;62.50;31.20;;;;;;;;;;5013886;28;20225;-85
2022/01/23 10:04:57;;;;;;;62.23;31.70;;;;;;;;;;5014161;28;20204;-84
2022/01/23 10:07:27;;;;;;;62.77;33.07;;;;;;;;;;5013704;28;20214;-85
2022/01/23 10:10:06;;;;;;;66.27;33.90;;;;;;;;;;5014398;28;20216;-85
2022/01/23 10:12:34;;;;;;;63.47;32.60;;;;;;;;;;5014204;28;20284;-85
2022/01/23 10:15:01;;;;;;;61.13;32.27;;;;;;;;;;5014803;28;20301;-87
2022/01/23 10:17:28;;;;;;;65.67;32.77;;;;;;;;;;5013762;28;20288;-86
2022/01/23 10:19:56;;;;;;;66.73;34.27;;;;;;;;;;5013747;28;20289;-86
2022/01/23 10:22:23;;;;;;;65.57;31.93;;;;;;;;;;5013965;28;20307;-89
2022/01/23 10:24:51;;;;;;;60.10;32.00;;;;;;;;;;5012632;28;20210;-88
2022/01/23 10:27:22;;;;;;;56.93;30.27;;;;;;;;;;5010970;28;20206;-89
2022/01/23 10:29:49;;;;;;;59.50;30.10;;;;;;;;;;5013448;28;20201;-87
2022/01/23 10:32:21;;;;;;;57.50;32.07;;;;;;;;;;5013094;28;20259;-86
2022/01/23 10:34:49;;;;;;;51.73;28.13;;;;;;;;;;5013236;28;20289;-88
2022/01/23 10:37:27;;;;;;;73.00;45.17;;;;;;;;;;5013939;28;20309;-89
2022/01/23 10:39:57;;;;;;;63.90;39.30;;;;;;;;;;5014561;28;20205;-87
2022/01/23 10:48:26;;;;;;;51.37;28.43;;;;;;;;;;4968958;28;20678;-86
2022/01/23 10:50:54;;;;;;;58.17;33.10;;;;;;;;;;4959417;28;20230;-85
2022/01/23 10:53:21;;;;;;;53.17;28.73;;;;;;;;;;4966650;28;20238;-87
2022/01/23 10:55:51;;;;;;;57.30;34.03;;;;;;;;;;4972843;28;20698;-88
2022/01/23 10:58:24;;;;;;;52.00;28.23;;;;;;;;;;4967490;28;20247;-89
2022/01/23 11:00:51;;;;;;;52.87;27.30;;;;;;;;;;4965792;28;20200;-89
2022/01/23 11:03:19;;;;;;;47.77;25.23;;;;;;;;;;4965114;28;20306;-89
2022/01/23 11:05:48;;;;;;;43.53;23.73;;;;;;;;;;4961891;28;20285;-88
2022/01/23 11:08:22;;;;;;;45.73;25.57;;;;;;;;;;4969377;28;20758;-88
2022/01/23 11:10:58;;;;;;;46.07;22.60;;;;;;;;;;4963492;28;20285;-88
2022/01/23 11:18:57;;;;;;;55.63;35.27;;;;;;;;;;4969356;28;20705;-91
2022/01/23 11:21:25;;;;;;;45.23;23.87;;;;;;;;;;4959301;28;20210;-91
2022/01/23 11:23:59;;;;;;;43.00;23.43;;;;;;;;;;4969272;28;20210;-91
2022/01/23 11:26:29;;;;;;;46.33;24.77;;;;;;;;;;5009124;28;20221;-89
2022/01/23 11:28:57;;;;;;;41.83;22.57;;;;;;;;;;5013747;28;20677;-90
2022/01/23 11:31:24;;;;;;;43.13;23.73;;;;;;;;;;5016019;28;20226;-90
2022/01/23 11:33:52;;;;;;;48.40;24.20;;;;;;;;;;5012009;28;20825;-89
2022/01/23 11:36:21;;;;;;;42.07;22.73;;;;;;;;;;5011174;28;20221;-89
2022/01/23 11:38:50;;;;;;;44.07;23.40;;;;;;;;;;5010382;28;20668;-91
2022/01/23 11:55:31;;;;;;;46.17;22.30;;;;;;;;;;4963041;28;20213;-90
2022/01/23 11:57:59;;;;;;;48.40;22.13;;;;;;;;;;4969275;28;20229;-90
2022/01/23 12:00:29;;;;;;;42.77;21.17;;;;;;;;;;4957854;28;20712;-89
2022/01/23 12:03:15;;;;;;;42.37;21.33;;;;;;;;;;4975843;28;20223;-89
2022/01/23 12:05:44;;;;;;;43.10;21.13;;;;;;;;;;4963447;28;20206;-90
2022/01/23 12:08:23;;;;;;;41.83;20.13;;;;;;;;;;4963133;28;20235;-89
2022/01/23 12:11:24;;;;;;;43.00;20.63;;;;;;;;;;4969408;28;20202;-90
2022/01/23 12:16:21;;;;;;;44.87;21.17;;;;;;;;;;4966212;28;20691;-87
2022/01/23 12:16:57;;;;;;;44.67;21.10;;;;;;;;;;4962406;28;20226;-89
2022/01/23 12:19:25;;;;;;;38.73;18.00;;;;;;;;;;5003719;28;20585;-90
2022/01/23 12:21:54;;;;;;;43.73;20.60;;;;;;;;;;5011238;28;20231;-90
2022/01/23 12:24:22;;;;;;;48.77;21.80;;;;;;;;;;5012097;28;20228;-90
2022/01/23 12:26:50;;;;;;;47.70;21.57;;;;;;;;;;5009047;28;20204;-89
2022/01/23 12:29:18;;;;;;;41.07;20.77;;;;;;;;;;5009782;28;20239;-89
2022/01/23 12:31:46;;;;;;;40.13;19.17;;;;;;;;;;5013315;28;20212;-89
2022/01/23 12:34:15;;;;;;;41.63;20.17;;;;;;;;;;5007942;28;20212;-89
2022/01/23 12:36:42;;;;;;;43.83;19.93;;;;;;;;;;5011211;28;20253;-89
2022/01/23 12:39:18;;;;;;;40.97;19.83;;;;;;;;;;5011106;28;20208;-89
2022/01/23 12:41:55;;;;;;;41.90;19.77;;;;;;;;;;5013619;28;20270;-89
2022/01/23 12:44:34;;;;;;;43.90;20.93;;;;;;;;;;5015441;28;20807;-88
2022/01/23 12:47:02;;;;;;;42.63;20.17;;;;;;;;;;5012996;28;20232;-89
2022/01/23 12:49:35;;;;;;;44.97;21.83;;;;;;;;;;5016685;28;20232;-88
2022/01/23 12:52:16;;;;;;;45.77;22.20;;;;;;;;;;5019098;28;20219;-88
2022/01/23 12:54:55;;;;;;;46.37;21.40;;;;;;;;;;5015339;28;20812;-88
2022/01/23 12:57:31;;;;;;;42.37;19.20;;;;;;;;;;5017057;28;20224;-87
2022/01/23 13:00:00;;;;;;;42.93;20.73;;;;;;;;;;5015159;28;20207;-88
2022/01/23 13:02:35;;;;;;;44.30;23.07;;;;;;;;;;5015953;28;20613;-87
2022/01/23 13:05:04;;;;;;;43.03;20.37;;;;;;;;;;5015955;28;20200;-87
2022/01/23 13:07:40;;;;;;;38.23;19.53;;;;;;;;;;5014746;28;20270;-88
2022/01/23 13:10:22;;;;;;;37.20;18.13;;;;;;;;;;5015502;28;20212;-87
2022/01/23 13:12:54;;;;;;;35.07;17.77;;;;;;;;;;5015882;28;20209;-87
2022/01/23 13:15:41;;;;;;;36.13;18.13;;;;;;;;;;5011297;28;20201;-87
2022/01/23 13:18:19;;;;;;;34.53;16.83;;;;;;;;;;5016743;28;20684;-87
2022/01/23 13:32:35;;;;;;;34.97;17.13;;;;;;;;;;5010088;28;20628;-87
2022/01/23 13:35:07;;;;;;;38.33;22.60;;;;;;;;;;5012896;28;20208;-89
2022/01/23 13:37:38;;;;;;;65.93;36.97;;;;;;;;;;5018882;28;20229;-89
2022/01/23 13:40:08;;;;;;;38.13;22.57;;;;;;;;;;5018343;28;20220;-89
2022/01/23 13:42:52;;;;;;;56.87;30.97;;;;;;;;;;5017845;28;20235;-90
2022/01/23 13:59:32;;;;;;;39.43;19.97;;;;;;;;;;5013114;28;20204;-88
2022/01/23 14:02:14;;;;;;;37.20;19.73;;;;;;;;;;5015889;28;20218;-89
2022/01/23 14:04:42;;;;;;;37.50;19.10;;;;;;;;;;5015135;28;20243;-88
2022/01/23 14:07:10;;;;;;;66.67;32.33;;;;;;;;;;5015603;28;20197;-89
2022/01/23 14:09:39;;;;;;;42.20;22.07;;;;;;;;;;5018222;28;20209;-89
2022/01/23 14:12:11;;;;;;;81.07;38.60;;;;;;;;;;5016413;28;20296;-89
2022/01/23 14:14:49;;;;;;;40.13;20.97;;;;;;;;;;5015582;28;20211;-89
2022/01/23 14:17:16;;;;;;;74.50;36.97;;;;;;;;;;5013393;28;20263;-89
2022/01/23 14:19:56;;;;;;;40.00;21.47;;;;;;;;;;5017264;28;20828;-89
2022/01/23 14:22:27;;;;;;;48.30;24.03;;;;;;;;;;5014040;28;20205;-88
2022/01/23 14:25:06;;;;;;;86.20;44.67;;;;;;;;;;5016580;28;20259;-88
2022/01/23 14:27:35;;;;;;;60.57;29.07;;;;;;;;;;5015422;28;20224;-89
2022/01/23 14:30:06;;;;;;;52.70;25.40;;;;;;;;;;5014131;28;20209;-89
2022/01/23 14:32:41;;;;;;;70.20;32.60;;;;;;;;;;5016826;28;20201;-88
2022/01/23 14:35:12;;;;;;;56.93;29.53;;;;;;;;;;5016627;28;20578;-89
2022/01/23 14:37:40;;;;;;;53.33;24.90;;;;;;;;;;5015090;28;20220;-89
2022/01/23 14:40:15;;;;;;;82.07;39.37;;;;;;;;;;5017606;28;20208;-88
2022/01/23 14:42:57;;;;;;;78.97;36.80;;;;;;;;;;5020710;28;20286;-88
2022/01/23 14:45:25;;;;;;;58.03;27.37;;;;;;;;;;5017309;28;20209;-88
2022/01/23 14:47:53;;;;;;;112.80;63.77;;;;;;;;;;5017172;28;20235;-88
2022/01/23 14:50:21;;;;;;;72.03;39.83;;;;;;;;;;5017042;28;20213;-88
2022/01/23 14:52:51;;;;;;;67.93;34.70;;;;;;;;;;5015856;28;20218;-89
2022/01/23 14:55:20;;;;;;;62.27;29.57;;;;;;;;;;5017312;28;20201;-89
2022/01/23 14:57:51;;;;;;;70.47;31.70;;;;;;;;;;5017302;28;20239;-88
2022/01/23 15:00:21;;;;;;;71.17;34.23;;;;;;;;;;5017729;28;20236;-88
2022/01/23 15:02:48;;;;;;;62.73;32.80;;;;;;;;;;5017383;28;20591;-88
2022/01/23 15:05:18;;;;;;;212.57;117.90;;;;;;;;;;5016630;28;20595;-88
2022/01/23 15:07:46;;;;;;;126.00;62.70;;;;;;;;;;5016493;28;20201;-88
2022/01/23 15:10:15;;;;;;;88.33;42.30;;;;;;;;;;5031187;28;20208;-89
2022/01/23 15:12:43;;;;;;;87.53;40.70;;;;;;;;;;5033476;28;20205;-88
2022/01/23 15:15:12;;;;;;;103.23;50.23;;;;;;;;;;5015238;28;20950;-87
2022/01/23 15:20:20;;;;;;;88.67;40.03;;;;;;;;;;5018457;28;20669;-88
2022/01/23 15:22:48;;;;;;;137.70;74.20;;;;;;;;;;5015835;28;20580;-87
2022/01/23 15:25:18;;;;;;;62.87;32.80;;;;;;;;;;5015584;28;20197;-88
2022/01/23 15:27:46;;;;;;;59.03;26.50;;;;;;;;;;5016436;28;20197;-88
2022/01/23 15:30:17;;;;;;;58.27;27.90;;;;;;;;;;5015657;28;20730;-89
2022/01/23 15:32:45;;;;;;;52.97;26.80;;;;;;;;;;5015354;28;20642;-86
2022/01/23 15:35:13;;;;;;;49.87;23.50;;;;;;;;;;5017237;28;20221;-89
2022/01/23 15:37:40;;;;;;;46.97;21.60;;;;;;;;;;5018596;28;20251;-88
2022/01/23 15:40:10;;;;;;;53.87;25.57;;;;;;;;;;5017655;28;20208;-88
2022/01/23 15:42:38;;;;;;;60.30;28.83;;;;;;;;;;5019048;28;20229;-89
2022/01/23 15:45:06;;;;;;;56.23;30.93;;;;;;;;;;5016468;28;20250;-89
2022/01/23 15:47:35;;;;;;;52.60;24.80;;;;;;;;;;5019840;28;20227;-89
2022/01/23 15:50:02;;;;;;;53.73;25.70;;;;;;;;;;5019647;28;20259;-88
2022/01/23 15:52:30;;;;;;;50.83;24.63;;;;;;;;;;5013435;28;20236;-88
2022/01/23 15:54:57;;;;;;;84.57;54.57;;;;;;;;;;5014283;28;20269;-88
2022/01/23 15:57:24;;;;;;;45.70;22.97;;;;;;;;;;5012917;28;20262;-90
2022/01/23 15:59:52;;;;;;;44.37;22.70;;;;;;;;;;5013875;28;20551;-89
2022/01/23 16:02:20;;;;;;;46.27;21.67;;;;;;;;;;5011654;28;20750;-90
2022/01/23 16:04:48;;;;;;;46.60;22.50;;;;;;;;;;5013641;28;20235;-90
2022/01/23 16:07:18;;;;;;;52.30;24.63;;;;;;;;;;5013206;28;20615;-88
2022/01/23 16:09:45;;;;;;;45.73;22.33;;;;;;;;;;5013451;28;20209;-88
2022/01/23 16:12:13;;;;;;;49.57;25.93;;;;;;;;;;5013789;28;20271;-88
2022/01/23 16:14:41;;;;;;;48.07;22.47;;;;;;;;;;5012051;28;20200;-87
2022/01/23 16:17:08;;;;;;;48.47;21.97;;;;;;;;;;5012630;28;20881;-88
2022/01/23 16:19:36;;;;;;;42.97;21.93;;;;;;;;;;5013041;28;20234;-87
2022/01/23 16:22:05;;;;;;;45.37;20.73;;;;;;;;;;5011590;28;20255;-87
2022/01/23 16:24:33;;;;;;;44.87;21.87;;;;;;;;;;5012052;28;20251;-88
2022/01/23 16:27:00;;;;;;;65.03;37.30;;;;;;;;;;5012247;28;20360;-87
2022/01/23 16:29:28;;;;;;;58.63;32.23;;;;;;;;;;5011833;28;20232;-87
2022/01/23 16:31:57;;;;;;;50.97;25.67;;;;;;;;;;5011809;28;20254;-88
2022/01/23 16:34:24;;;;;;;46.60;23.20;;;;;;;;;;5011128;28;20570;-86
2022/01/23 16:36:51;;;;;;;46.70;24.07;;;;;;;;;;5012081;28;20266;-87
2022/01/23 16:39:20;;;;;;;46.03;21.97;;;;;;;;;;5013187;28;20723;-87
2022/01/23 16:41:47;;;;;;;41.43;19.20;;;;;;;;;;5012317;28;20611;-88
2022/01/23 16:44:15;;;;;;;45.13;22.37;;;;;;;;;;5012614;28;20723;-87
2022/01/23 16:46:43;;;;;;;46.07;20.27;;;;;;;;;;5012186;28;20262;-88
2022/01/23 16:49:10;;;;;;;40.83;18.80;;;;;;;;;;5012823;28;20231;-88
2022/01/23 16:51:38;;;;;;;46.40;24.73;;;;;;;;;;5011958;28;20232;-88
2022/01/23 16:54:07;;;;;;;50.20;25.37;;;;;;;;;;5014584;28;20290;-86
2022/01/23 16:56:35;;;;;;;47.53;23.43;;;;;;;;;;5022927;28;20215;-89
2022/01/23 16:59:03;;;;;;;41.17;21.13;;;;;;;;;;5012098;28;20273;-89
2022/01/23 17:01:30;;;;;;;43.13;20.67;;;;;;;;;;5011544;28;20200;-88
2022/01/23 17:03:57;;;;;;;45.67;24.10;;;;;;;;;;5011041;28;20200;-86
2022/01/23 17:06:24;;;;;;;41.63;20.93;;;;;;;;;;5011821;28;20231;-88
2022/01/23 17:08:52;;;;;;;43.37;22.40;;;;;;;;;;5011491;28;20614;-87
2022/01/23 17:11:20;;;;;;;40.70;20.93;;;;;;;;;;5011831;28;20251;-87
2022/01/23 17:13:48;;;;;;;40.37;20.07;;;;;;;;;;5010275;28;20230;-87
2022/01/23 17:16:17;;;;;;;37.33;18.93;;;;;;;;;;5010721;28;20213;-90
2022/01/23 17:18:44;;;;;;;40.73;19.73;;;;;;;;;;5010923;28;20220;-89
2022/01/23 17:21:12;;;;;;;40.10;19.70;;;;;;;;;;5010207;28;20671;-89
2022/01/23 17:23:39;;;;;;;36.87;19.77;;;;;;;;;;5011170;28;20212;-88